Time;durP1;ratioP1;P1;durP2;ratioP2;P2;SDS_P1;SDS_P2;PMS_P1;PMS_P2;Temp;Humidity;BMP_temperature;BMP_pressure;BME280_temperature;BME280_humidity;BME280_pressure;Samples;Min_cycle;Max_cycle;Signal;HPM_P1;HPM_P2
2022/01/26 00:06:31;;;;;;;99.55;34.58;;;2.50;99.90;;;;;;5025912;28;20049;-49
2022/01/26 00:08:57;;;;;;;98.85;34.90;;;2.50;99.90;;;;;;5016912;28;20133;-47
2022/01/26 00:11:24;;;;;;;99.82;34.80;;;2.50;99.90;;;;;;5021085;28;20377;-50
2022/01/26 00:13:51;;;;;;;103.80;35.20;;;2.40;99.90;;;;;;5031945;28;20042;-49
2022/01/26 00:16:27;;;;;;;101.93;35.30;;;2.50;99.90;;;;;;5031532;28;20112;-52
2022/01/26 00:18:57;;;;;;;96.85;34.45;;;2.50;99.90;;;;;;5028016;28;20517;-48
2022/01/26 00:21:37;;;;;;;91.40;34.22;;;2.50;99.90;;;;;;5026179;28;20034;-50
2022/01/26 00:29:24;;;;;;;103.32;36.13;;;2.40;99.90;;;;;;5018022;28;20038;-52
2022/01/26 00:40:12;;;;;;;107.70;34.33;;;2.40;99.90;;;;;;5014855;28;20193;-49
2022/01/26 00:42:40;;;;;;;106.50;34.13;;;2.30;99.90;;;;;;5028295;28;20192;-53
2022/01/26 00:45:08;;;;;;;100.57;35.92;;;2.50;99.90;;;;;;5015384;28;20042;-52
2022/01/26 00:47:34;;;;;;;112.15;38.60;;;2.30;99.90;;;;;;5024912;28;20036;-50
2022/01/26 00:50:06;;;;;;;109.05;37.75;;;2.30;99.90;;;;;;5022634;28;20029;-48
2022/01/26 00:52:41;;;;;;;102.32;35.42;;;2.30;99.90;;;;;;5031580;28;20044;-48
2022/01/26 00:55:10;;;;;;;106.55;37.20;;;2.30;99.90;;;;;;5031374;28;20088;-55
2022/01/26 00:57:36;;;;;;;122.03;37.67;;;2.30;99.90;;;;;;5031106;28;20037;-48
2022/01/26 01:00:09;;;;;;;117.28;39.85;;;2.30;99.90;;;;;;5031371;28;20510;-54
2022/01/26 01:02:35;;;;;;;119.70;39.80;;;2.30;99.90;;;;;;5018858;28;20042;-49
2022/01/26 01:05:06;;;;;;;110.55;35.03;;;2.30;99.90;;;;;;5024345;28;20301;-50
2022/01/26 01:07:36;;;;;;;115.57;37.97;;;2.30;99.90;;;;;;5024173;28;20037;-50
2022/01/26 01:10:03;;;;;;;119.13;38.75;;;2.30;99.90;;;;;;5031045;28;20092;-53
2022/01/26 01:12:30;;;;;;;115.10;38.83;;;2.30;99.90;;;;;;5003975;28;20038;-52
2022/01/26 01:14:56;;;;;;;114.03;38.10;;;2.30;99.90;;;;;;5026183;28;20044;-50
2022/01/26 01:17:25;;;;;;;123.90;39.45;;;2.30;99.90;;;;;;5015730;28;20037;-50
2022/01/26 01:20:14;;;;;;;122.00;38.92;;;2.30;99.90;;;;;;5012728;28;20083;-50
2022/01/26 01:28:20;;;;;;;117.05;38.85;;;2.30;99.90;;;;;;4990989;28;20544;-55
2022/01/26 01:30:50;;;;;;;118.60;38.70;;;2.30;99.90;;;;;;5024208;28;20067;-54
2022/01/26 01:33:23;;;;;;;118.53;39.05;;;2.30;99.90;;;;;;5027526;28;20057;-52
2022/01/26 01:35:49;;;;;;;119.15;38.15;;;2.30;99.90;;;;;;5011861;28;20099;-50
2022/01/26 01:38:18;;;;;;;119.28;40.45;;;2.30;99.90;;;;;;5021805;28;20056;-52
2022/01/26 01:40:47;;;;;;;111.88;36.97;;;2.30;99.90;;;;;;5001651;28;20042;-52
2022/01/26 01:43:15;;;;;;;128.80;40.55;;;2.30;99.90;;;;;;5029065;28;20120;-52
2022/01/26 01:45:45;;;;;;;117.93;38.60;;;2.30;99.90;;;;;;5034770;28;20034;-50
2022/01/26 01:48:13;;;;;;;119.43;38.88;;;2.30;99.90;;;;;;5029386;28;20061;-53
2022/01/26 01:50:41;;;;;;;122.78;39.25;;;2.30;99.90;;;;;;5019924;28;20038;-51
2022/01/26 01:53:13;;;;;;;117.28;39.17;;;2.30;99.90;;;;;;5021129;28;20092;-51
2022/01/26 01:55:41;;;;;;;120.63;38.50;;;2.30;99.90;;;;;;5029009;28;20041;-48
2022/01/26 01:58:08;;;;;;;117.85;38.40;;;2.20;99.90;;;;;;5023180;28;20487;-49
2022/01/26 02:00:34;;;;;;;118.28;38.25;;;2.30;99.90;;;;;;5020372;28;20050;-50
2022/01/26 02:03:00;;;;;;;120.13;38.90;;;2.30;99.90;;;;;;5028556;28;20045;-49
2022/01/26 02:05:26;;;;;;;126.40;39.90;;;2.20;99.90;;;;;;5024409;28;20029;-52
2022/01/26 02:07:52;;;;;;;122.05;39.08;;;2.30;99.90;;;;;;5033608;28;20041;-50
2022/01/26 02:10:19;;;;;;;117.82;38.58;;;2.20;99.90;;;;;;5026836;28;20477;-52
2022/01/26 02:12:49;;;;;;;115.93;37.25;;;2.30;99.90;;;;;;5014500;28;20089;-53
2022/01/26 02:15:21;;;;;;;117.40;37.97;;;2.20;99.90;;;;;;5030992;28;20041;-49
2022/01/26 02:56:10;;;;;;;112.22;35.05;;;2.10;99.90;;;;;;5004118;28;20045;-50
2022/01/26 03:04:14;;;;;;;103.07;32.50;;;2.10;99.90;;;;;;5028025;28;20091;-52
2022/01/26 03:06:48;;;;;;;107.82;33.58;;;2.10;99.90;;;;;;5019571;28;20044;-50
2022/01/26 03:09:18;;;;;;;118.13;34.75;;;2.10;99.90;;;;;;5023924;28;20049;-50
2022/01/26 03:11:46;;;;;;;113.20;35.15;;;2.00;99.90;;;;;;5026473;28;20042;-52
2022/01/26 03:14:27;;;;;;;91.97;29.63;;;2.00;99.90;;;;;;5006624;28;20081;-51
2022/01/26 03:16:59;;;;;;;104.85;33.33;;;2.00;99.90;;;;;;5021590;28;20085;-51
2022/01/26 03:33:11;;;;;;;108.18;31.25;;;2.00;99.90;;;;;;5001029;28;19917;-55
2022/01/26 03:35:50;;;;;;;97.78;30.48;;;2.00;99.90;;;;;;5020516;28;20060;-52
2022/01/26 03:38:40;;;;;;;104.53;31.50;;;2.00;99.90;;;;;;5015081;28;20049;-52
2022/01/26 03:41:20;;;;;;;89.40;30.25;;;2.00;99.90;;;;;;5025846;28;20072;-53
2022/01/26 03:43:46;;;;;;;102.43;29.50;;;2.00;99.90;;;;;;5024853;28;20037;-52
2022/01/26 03:46:12;;;;;;;97.13;30.08;;;2.00;99.90;;;;;;5022339;28;20125;-51
2022/01/26 03:48:38;;;;;;;109.63;31.65;;;2.00;99.90;;;;;;5002390;28;20469;-51
2022/01/26 03:51:04;;;;;;;97.40;28.67;;;2.00;99.90;;;;;;5032060;28;20044;-52
2022/01/26 03:53:30;;;;;;;101.90;31.67;;;2.00;99.90;;;;;;5021200;28;20037;-53
2022/01/26 03:55:56;;;;;;;98.65;31.90;;;2.00;99.90;;;;;;5019925;28;20033;-54
2022/01/26 03:58:21;;;;;;;96.25;29.75;;;2.00;99.90;;;;;;5018554;28;20043;-52
2022/01/26 04:00:47;;;;;;;91.38;29.10;;;2.00;99.90;;;;;;5032509;28;20328;-52
2022/01/26 04:03:13;;;;;;;88.05;27.08;;;2.00;99.90;;;;;;5023230;28;20042;-52
2022/01/26 04:05:39;;;;;;;97.30;29.88;;;2.00;99.90;;;;;;5027158;28;20072;-51
2022/01/26 04:08:12;;;;;;;88.30;29.23;;;2.00;99.90;;;;;;5020542;28;20045;-51
2022/01/26 04:13:22;;;;;;;87.05;28.63;;;2.00;99.90;;;;;;5023642;28;20056;-52
2022/01/26 04:15:47;;;;;;;92.38;29.80;;;2.00;99.90;;;;;;5020223;28;20124;-51
2022/01/26 04:18:18;;;;;;;88.65;29.38;;;2.00;99.90;;;;;;5023173;28;20036;-53
2022/01/26 04:20:48;;;;;;;89.75;28.08;;;2.00;99.90;;;;;;5011915;28;20033;-52
2022/01/26 04:25:44;;;;;;;85.65;28.25;;;2.00;99.90;;;;;;5009283;28;20050;-51
2022/01/26 04:28:17;;;;;;;89.10;28.02;;;2.00;99.90;;;;;;5011746;28;20045;-52
2022/01/26 04:30:42;;;;;;;88.32;27.88;;;2.00;99.90;;;;;;5011694;28;20046;-51
2022/01/26 04:33:08;;;;;;;83.10;26.73;;;2.00;99.90;;;;;;5011238;28;20064;-52
2022/01/26 04:35:35;;;;;;;83.18;26.33;;;2.00;99.90;;;;;;5011645;28;20121;-52
2022/01/26 04:40:36;;;;;;;92.18;28.52;;;2.00;99.90;;;;;;5011520;28;20038;-49
2022/01/26 04:43:06;;;;;;;89.30;26.73;;;2.00;99.90;;;;;;4993919;28;20056;-48
2022/01/26 04:45:32;;;;;;;93.45;29.02;;;2.00;99.90;;;;;;5011709;28;20053;-50
2022/01/26 04:47:58;;;;;;;87.43;27.52;;;1.90;99.90;;;;;;5012092;28;20446;-54
2022/01/26 04:50:23;;;;;;;94.68;28.73;;;1.90;99.90;;;;;;5011852;28;20026;-54
2022/01/26 04:52:49;;;;;;;89.40;27.38;;;1.90;99.90;;;;;;5011407;28;20069;-49
2022/01/26 04:55:15;;;;;;;89.45;26.88;;;1.90;99.90;;;;;;5011214;28;20489;-52
2022/01/26 04:57:41;;;;;;;82.25;26.33;;;1.90;99.90;;;;;;5009470;28;20056;-51
2022/01/26 05:00:08;;;;;;;94.80;27.50;;;1.90;99.90;;;;;;5011836;28;20043;-49
2022/01/26 05:02:34;;;;;;;79.20;25.88;;;1.90;99.90;;;;;;5010999;28;20037;-53
2022/01/26 05:05:00;;;;;;;88.47;26.75;;;1.90;99.90;;;;;;5009960;28;20095;-50
2022/01/26 05:07:26;;;;;;;85.38;27.00;;;1.90;99.90;;;;;;5011252;28;20037;-50
2022/01/26 05:09:51;;;;;;;72.13;24.13;;;1.90;99.90;;;;;;5011612;28;20040;-50
2022/01/26 05:12:18;;;;;;;82.68;25.38;;;1.90;99.90;;;;;;5011368;28;20038;-52
2022/01/26 05:14:46;;;;;;;76.32;24.67;;;1.90;99.90;;;;;;5011372;28;20044;-51
2022/01/26 05:17:18;;;;;;;88.13;26.40;;;1.90;99.90;;;;;;5011619;28;20473;-51
2022/01/26 05:19:44;;;;;;;84.55;24.90;;;1.90;99.90;;;;;;5008267;28;20384;-50
2022/01/26 05:22:10;;;;;;;86.22;24.40;;;2.00;99.90;;;;;;5011240;28;20116;-52
2022/01/26 05:24:35;;;;;;;76.47;23.13;;;2.00;99.90;;;;;;5011134;28;20049;-51
2022/01/26 05:27:01;;;;;;;78.03;23.42;;;2.00;99.90;;;;;;5011226;28;20129;-52
2022/01/26 05:29:27;;;;;;;70.75;23.25;;;2.00;99.90;;;;;;5011383;28;20083;-53
2022/01/26 05:31:53;;;;;;;74.10;23.45;;;2.00;99.90;;;;;;5011350;28;20056;-54
2022/01/26 05:34:18;;;;;;;83.55;25.25;;;2.00;99.90;;;;;;5010562;28;20042;-51
2022/01/26 05:36:44;;;;;;;73.15;23.33;;;2.00;99.90;;;;;;5011015;28;20041;-50
2022/01/26 05:39:09;;;;;;;75.53;23.17;;;2.00;99.90;;;;;;5010240;28;20038;-51
2022/01/26 05:41:38;;;;;;;73.97;23.27;;;2.00;99.90;;;;;;5008718;28;20042;-53
2022/01/26 05:44:04;;;;;;;73.88;22.58;;;2.00;99.90;;;;;;5010700;28;20057;-54
2022/01/26 05:46:43;;;;;;;76.53;23.45;;;2.00;99.90;;;;;;4997622;28;20034;-50
2022/01/26 05:49:10;;;;;;;78.70;24.50;;;2.00;99.90;;;;;;5011109;28;20074;-51
2022/01/26 05:51:36;;;;;;;74.15;23.77;;;2.00;99.90;;;;;;5010843;28;20038;-50
2022/01/26 05:54:02;;;;;;;67.38;21.88;;;2.00;99.90;;;;;;5011282;28;20500;-50
2022/01/26 05:56:29;;;;;;;70.85;23.58;;;2.00;99.90;;;;;;5011268;28;20164;-51
2022/01/26 05:58:55;;;;;;;75.63;23.13;;;2.00;99.90;;;;;;5010868;28;20069;-54
2022/01/26 06:01:21;;;;;;;69.95;23.35;;;2.10;99.90;;;;;;5010692;28;20061;-49
2022/01/26 06:03:47;;;;;;;73.93;24.75;;;2.10;99.90;;;;;;5010110;28;20091;-50
2022/01/26 06:06:15;;;;;;;71.00;22.30;;;2.10;99.90;;;;;;4992650;28;20053;-50
2022/01/26 06:08:40;;;;;;;68.80;23.00;;;3.40;99.90;;;;;;5010966;28;20065;-49
2022/01/26 06:11:06;;;;;;;73.05;25.20;;;2.10;99.90;;;;;;5010739;28;20080;-48
2022/01/26 06:13:32;;;;;;;70.28;22.65;;;2.10;99.90;;;;;;5010964;28;20388;-50
2022/01/26 06:15:58;;;;;;;70.22;23.05;;;2.10;99.90;;;;;;5012497;28;20049;-52
2022/01/26 06:18:23;;;;;;;73.32;24.55;;;2.10;99.90;;;;;;5014291;28;20072;-48
2022/01/26 06:20:49;;;;;;;69.40;22.88;;;2.10;99.90;;;;;;5014234;28;20037;-52
2022/01/26 06:23:15;;;;;;;68.22;23.17;;;2.10;99.90;;;;;;5014340;28;20132;-51
2022/01/26 06:25:41;;;;;;;70.60;25.48;;;2.10;99.90;;;;;;5016539;28;20161;-51
2022/01/26 06:28:11;;;;;;;71.00;24.42;;;2.10;99.90;;;;;;5012977;28;20041;-49
2022/01/26 06:30:38;;;;;;;76.25;25.48;;;2.10;99.90;;;;;;5012854;28;20495;-49
2022/01/26 06:33:05;;;;;;;71.00;24.55;;;2.10;99.90;;;;;;5023608;28;20076;-49
2022/01/26 06:35:30;;;;;;;75.82;27.73;;;2.20;99.90;;;;;;5016972;28;20381;-48
2022/01/26 06:37:56;;;;;;;77.95;26.83;;;2.20;99.90;;;;;;5017585;28;20033;-49
2022/01/26 06:40:23;;;;;;;76.45;27.98;;;2.20;99.90;;;;;;5029098;28;20435;-50
2022/01/26 06:42:54;;;;;;;78.65;29.15;;;2.20;99.90;;;;;;5014060;28;20907;-50
2022/01/26 06:45:26;;;;;;;77.18;28.70;;;2.20;99.90;;;;;;5004980;28;20128;-50
2022/01/26 06:50:18;;;;;;;87.85;30.60;;;2.20;99.90;;;;;;5025467;28;20044;-49
2022/01/26 06:52:46;;;;;;;85.40;30.83;;;2.20;99.90;;;;;;5033315;28;20099;-50
2022/01/26 06:55:12;;;;;;;84.10;30.48;;;2.20;99.90;;;;;;5033344;28;20048;-53
2022/01/26 06:57:38;;;;;;;85.47;31.15;;;2.20;99.90;;;;;;5030684;28;20445;-50
2022/01/26 07:00:05;;;;;;;89.53;33.17;;;2.20;99.90;;;;;;5013188;28;20125;-55
2022/01/26 07:02:30;;;;;;;95.38;35.15;;;2.20;99.90;;;;;;5024309;28;20084;-50
2022/01/26 07:04:56;;;;;;;105.60;38.38;;;2.20;99.90;;;;;;5024107;28;20072;-46
2022/01/26 07:07:22;;;;;;;102.70;37.58;;;2.20;99.90;;;;;;5030222;28;20030;-51
2022/01/26 07:09:47;;;;;;;105.80;38.28;;;2.40;99.90;;;;;;5017006;28;20116;-52
2022/01/26 07:12:13;;;;;;;111.22;40.05;;;2.20;99.90;;;;;;5012787;28;20042;-50
2022/01/26 07:23:17;;;;;;;127.78;49.08;;;2.30;99.90;;;;;;4993796;28;20050;-48
2022/01/26 07:25:42;;;;;;;130.68;47.30;;;2.30;99.90;;;;;;4989220;28;20456;-48
2022/01/26 07:28:08;;;;;;;126.78;47.58;;;2.30;99.90;;;;;;4994122;28;20045;-49
2022/01/26 07:30:35;;;;;;;131.57;45.92;;;2.30;99.90;;;;;;5005920;28;20416;-51
2022/01/26 07:33:01;;;;;;;130.23;48.15;;;2.30;99.90;;;;;;5018259;28;20046;-52
2022/01/26 07:35:27;;;;;;;130.55;49.45;;;2.30;99.90;;;;;;5012691;28;20547;-49
2022/01/26 07:37:57;;;;;;;132.05;47.78;;;2.40;99.90;;;;;;5024072;28;20034;-53
2022/01/26 07:40:23;;;;;;;138.18;49.17;;;2.40;99.90;;;;;;5022400;28;20453;-52
2022/01/26 07:42:55;;;;;;;130.30;48.70;;;2.40;99.90;;;;;;5005365;28;20076;-52
2022/01/26 07:45:20;;;;;;;139.02;51.08;;;2.40;99.90;;;;;;5014978;28;20034;-54
2022/01/26 07:47:47;;;;;;;136.35;49.10;;;2.40;99.90;;;;;;5030995;28;20370;-51
2022/01/26 07:50:15;;;;;;;140.65;51.38;;;2.40;99.90;;;;;;5018204;28;20038;-51
2022/01/26 07:52:42;;;;;;;146.70;52.15;;;2.40;99.90;;;;;;5019125;28;20413;-49
2022/01/26 07:55:15;;;;;;;151.80;52.60;;;2.40;99.90;;;;;;5017237;28;20039;-50
2022/01/26 07:57:40;;;;;;;150.35;50.92;;;2.40;99.90;;;;;;5013260;28;20030;-51
2022/01/26 08:00:07;;;;;;;150.25;53.83;;;2.40;99.90;;;;;;5012767;28;20107;-50
2022/01/26 08:02:33;;;;;;;154.77;54.25;;;2.50;99.90;;;;;;5015051;28;20035;-52
2022/01/26 08:04:59;;;;;;;151.90;54.58;;;2.50;99.90;;;;;;5013665;28;20052;-48
2022/01/26 08:07:24;;;;;;;146.98;52.95;;;2.50;99.90;;;;;;5020628;28;20401;-47
2022/01/26 08:09:51;;;;;;;150.75;53.53;;;2.50;99.90;;;;;;5017036;28;20484;-48
2022/01/26 08:12:16;;;;;;;151.65;55.13;;;2.50;99.90;;;;;;5022249;28;20489;-52
2022/01/26 08:14:43;;;;;;;154.27;55.42;;;2.60;99.90;;;;;;5003513;28;20030;-52
2022/01/26 08:17:09;;;;;;;155.30;55.70;;;2.60;99.90;;;;;;5004671;28;20128;-50
2022/01/26 08:19:36;;;;;;;161.15;56.72;;;2.60;99.90;;;;;;4989677;28;20042;-49
2022/01/26 08:22:03;;;;;;;158.32;55.45;;;2.60;99.90;;;;;;5004459;28;20073;-51
2022/01/26 08:24:29;;;;;;;159.95;58.00;;;2.60;99.90;;;;;;5003153;28;20540;-51
2022/01/26 08:26:56;;;;;;;158.70;55.08;;;2.60;99.90;;;;;;5003976;28;20037;-50
2022/01/26 08:29:27;;;;;;;166.52;57.00;;;2.60;99.90;;;;;;5002613;28;20038;-50
2022/01/26 08:31:53;;;;;;;162.00;56.15;;;2.70;99.90;;;;;;5004189;28;20029;-51
2022/01/26 08:34:19;;;;;;;160.38;54.83;;;2.70;99.90;;;;;;5001129;28;21552;-51
2022/01/26 08:36:45;;;;;;;164.85;56.10;;;2.70;99.90;;;;;;5003990;28;20053;-51
2022/01/26 08:39:11;;;;;;;165.18;56.78;;;2.70;99.90;;;;;;5003633;28;20045;-50
2022/01/26 08:41:37;;;;;;;170.77;57.22;;;2.70;99.90;;;;;;5003806;28;20038;-49
2022/01/26 08:44:04;;;;;;;167.65;54.70;;;2.70;99.90;;;;;;5003743;28;20119;-54
2022/01/26 08:46:30;;;;;;;170.75;57.13;;;2.70;99.90;;;;;;5003049;28;20366;-55
2022/01/26 08:48:56;;;;;;;171.63;56.58;;;2.70;99.90;;;;;;5004389;28;20044;-54
2022/01/26 08:51:22;;;;;;;167.63;55.67;;;2.80;99.90;;;;;;5004790;28;20042;-52
2022/01/26 08:53:47;;;;;;;174.68;57.33;;;2.80;99.90;;;;;;5000196;28;20580;-55
2022/01/26 08:56:14;;;;;;;172.57;58.58;;;2.80;99.90;;;;;;5001234;28;20046;-52
2022/01/26 08:58:39;;;;;;;164.52;56.63;;;2.80;99.90;;;;;;5003761;28;20081;-52
2022/01/26 09:01:05;;;;;;;163.68;54.30;;;2.80;99.90;;;;;;4986557;28;20104;-52
2022/01/26 09:03:37;;;;;;;168.93;56.60;;;2.90;99.90;;;;;;5004047;28;20917;-49
2022/01/26 09:06:03;;;;;;;165.40;54.47;;;2.90;99.90;;;;;;5003588;28;20056;-52
2022/01/26 09:08:29;;;;;;;163.57;54.67;;;2.90;99.90;;;;;;5004000;28;20077;-54
2022/01/26 09:11:00;;;;;;;167.27;55.10;;;2.90;99.90;;;;;;5003947;28;20057;-50
2022/01/26 09:13:26;;;;;;;170.98;56.88;;;2.90;99.90;;;;;;5002929;28;20136;-52
2022/01/26 09:15:53;;;;;;;163.48;54.38;;;3.00;99.90;;;;;;5004754;28;20661;-51
2022/01/26 09:18:30;;;;;;;167.63;54.60;;;2.90;99.90;;;;;;5002454;28;20041;-52
2022/01/26 09:20:56;;;;;;;170.98;55.38;;;2.90;99.90;;;;;;4986551;28;20080;-48
2022/01/26 09:23:21;;;;;;;168.45;54.20;;;3.00;99.90;;;;;;4985876;28;20077;-50
2022/01/26 09:25:47;;;;;;;163.45;54.28;;;3.00;99.90;;;;;;5021016;28;20515;-54
2022/01/26 09:28:13;;;;;;;158.07;52.40;;;3.00;99.90;;;;;;5023825;28;20570;-54
2022/01/26 09:30:38;;;;;;;169.00;55.88;;;3.00;99.90;;;;;;5020336;28;20095;-52
2022/01/26 09:33:04;;;;;;;165.13;55.05;;;3.00;99.90;;;;;;5023542;28;20037;-50
2022/01/26 09:35:30;;;;;;;162.77;53.35;;;3.00;99.90;;;;;;5023954;28;20461;-49
2022/01/26 09:37:55;;;;;;;164.50;56.92;;;3.00;99.90;;;;;;5023733;28;20160;-51
2022/01/26 09:40:21;;;;;;;160.43;53.90;;;3.00;99.90;;;;;;5022479;28;20133;-53
2022/01/26 09:42:49;;;;;;;160.20;54.88;;;3.30;99.90;;;;;;5022425;28;20033;-51
2022/01/26 09:45:15;;;;;;;153.23;50.55;;;3.00;99.90;;;;;;5023004;28;20068;-50
2022/01/26 09:47:43;;;;;;;144.35;50.95;;;3.10;99.90;;;;;;5022082;28;20045;-52
2022/01/26 09:50:08;;;;;;;138.23;49.20;;;3.10;99.90;;;;;;5021906;28;20346;-51
2022/01/26 09:52:40;;;;;;;122.63;42.35;;;3.10;99.90;;;;;;5026366;28;20029;-50
2022/01/26 09:55:08;;;;;;;107.55;41.03;;;3.10;99.90;;;;;;5026270;28;20033;-51
2022/01/26 09:57:34;;;;;;;103.15;38.85;;;3.20;99.90;;;;;;5040243;28;20061;-52
2022/01/26 10:00:00;;;;;;;92.20;36.25;;;3.20;99.90;;;;;;5020465;28;20488;-51
2022/01/26 10:02:27;;;;;;;99.45;40.83;;;3.20;99.90;;;;;;5022577;28;20034;-52
2022/01/26 10:05:04;;;;;;;92.97;38.85;;;3.30;99.90;;;;;;5023350;28;20045;-54
2022/01/26 10:15:44;;;;;;;87.63;36.63;;;3.30;99.90;;;;;;5024586;28;20060;-52
2022/01/26 10:18:17;;;;;;;97.18;38.55;;;3.40;99.90;;;;;;5025185;28;20037;-52
2022/01/26 10:20:49;;;;;;;99.63;39.60;;;3.40;99.90;;;;;;5024937;28;20493;-52
2022/01/26 10:23:25;;;;;;;97.85;39.08;;;3.40;99.90;;;;;;5022544;28;20381;-48
2022/01/26 10:26:06;;;;;;;96.55;39.83;;;3.40;99.90;;;;;;5004530;28;20045;-52
2022/01/26 10:28:51;;;;;;;102.75;41.08;;;3.40;99.90;;;;;;5005478;28;20465;-51
2022/01/26 10:31:34;;;;;;;96.05;39.30;;;3.40;99.90;;;;;;5003827;28;20042;-48
2022/01/26 10:34:16;;;;;;;96.35;39.13;;;3.40;99.90;;;;;;5008015;28;20049;-52
2022/01/26 10:36:47;;;;;;;106.60;41.20;;;3.50;99.90;;;;;;5007244;28;20030;-53
2022/01/26 10:39:27;;;;;;;107.10;41.05;;;3.40;99.90;;;;;;5008529;28;20529;-51
2022/01/26 10:41:56;;;;;;;104.30;39.75;;;3.50;99.90;;;;;;5007386;28;20091;-52
2022/01/26 10:44:35;;;;;;;99.93;38.45;;;3.50;99.90;;;;;;5007814;28;20103;-49
2022/01/26 10:47:03;;;;;;;98.80;38.75;;;3.50;99.90;;;;;;4992341;28;20049;-51
2022/01/26 10:52:37;;;;;;;102.65;40.38;;;3.50;99.90;;;;;;5007220;28;20497;-48
2022/01/26 10:55:07;;;;;;;94.43;38.10;;;3.50;99.90;;;;;;5007284;28;20053;-50
2022/01/26 10:57:35;;;;;;;103.43;39.80;;;3.50;99.90;;;;;;5006499;28;20042;-51
2022/01/26 11:00:02;;;;;;;98.65;39.63;;;3.50;99.90;;;;;;5008982;28;20042;-50
2022/01/26 11:02:29;;;;;;;97.25;38.50;;;3.50;99.90;;;;;;5005265;28;20092;-48
2022/01/26 11:04:55;;;;;;;99.35;37.13;;;3.60;99.90;;;;;;5004125;28;20041;-49
2022/01/26 11:07:46;;;;;;;80.22;34.05;;;3.60;99.90;;;;;;5007556;28;20034;-49
2022/01/26 11:10:12;;;;;;;82.35;35.03;;;3.60;99.90;;;;;;5008211;28;20038;-51
2022/01/26 11:12:40;;;;;;;87.65;35.80;;;3.60;99.90;;;;;;4988105;28;20040;-49
2022/01/26 11:15:09;;;;;;;86.50;35.13;;;3.60;99.90;;;;;;4991317;28;20384;-53
2022/01/26 11:17:43;;;;;;;83.50;33.85;;;3.60;99.90;;;;;;5005324;28;20046;-49
2022/01/26 11:20:20;;;;;;;79.15;33.90;;;3.60;99.90;;;;;;5008826;28;20066;-52
2022/01/26 11:23:00;;;;;;;79.55;34.67;;;3.70;99.90;;;;;;4990650;28;20045;-53
2022/01/26 11:25:48;;;;;;;80.15;35.22;;;3.70;99.90;;;;;;5019529;28;20053;-49
2022/01/26 11:28:23;;;;;;;84.93;35.47;;;3.70;99.90;;;;;;5022931;28;20049;-53
2022/01/26 11:30:50;;;;;;;85.25;33.60;;;3.70;99.90;;;;;;5025370;28;20025;-51
2022/01/26 11:33:28;;;;;;;77.90;32.92;;;3.70;99.90;;;;;;5023932;28;20532;-57
2022/01/26 11:35:56;;;;;;;87.32;35.05;;;3.70;99.90;;;;;;5026508;28;20108;-52
2022/01/26 11:46:36;;;;;;;101.93;40.00;;;3.80;99.90;;;;;;5023587;28;20056;-53
2022/01/26 11:49:09;;;;;;;103.72;40.50;;;3.70;99.90;;;;;;5007443;28;20041;-55
2022/01/26 11:51:49;;;;;;;96.60;39.35;;;3.70;99.90;;;;;;5024661;28;20104;-54
2022/01/26 11:54:17;;;;;;;92.93;36.22;;;3.70;99.90;;;;;;5007652;28;20049;-52
2022/01/26 11:56:53;;;;;;;83.05;34.30;;;3.80;99.90;;;;;;5022527;28;20041;-54
2022/01/26 11:59:21;;;;;;;83.35;35.53;;;3.80;99.90;;;;;;5022539;28;20041;-52
2022/01/26 12:01:55;;;;;;;82.18;36.35;;;3.80;99.90;;;;;;5021252;28;20056;-49
2022/01/26 12:04:23;;;;;;;87.13;34.22;;;3.80;99.90;;;;;;5020880;28;20481;-54
2022/01/26 12:06:56;;;;;;;80.85;32.17;;;3.70;99.90;;;;;;5022871;28;20025;-52
2022/01/26 12:09:23;;;;;;;79.43;34.00;;;3.80;99.90;;;;;;5023542;28;20037;-53
2022/01/26 12:11:55;;;;;;;74.57;31.38;;;3.80;99.90;;;;;;5022163;28;20048;-52
2022/01/26 12:14:22;;;;;;;75.18;32.17;;;3.80;99.90;;;;;;5021776;28;20039;-52
2022/01/26 12:16:52;;;;;;;72.35;29.75;;;3.80;99.90;;;;;;5022393;28;20112;-52
2022/01/26 12:19:31;;;;;;;74.63;30.85;;;3.90;99.90;;;;;;5022437;28;20045;-54
2022/01/26 12:36:19;;;;;;;73.80;32.27;;;3.90;99.90;;;;;;5003964;28;20157;-53
2022/01/26 12:38:49;;;;;;;85.90;34.17;;;3.90;99.90;;;;;;5023356;28;20049;-52
2022/01/26 12:41:45;;;;;;;85.97;34.15;;;4.00;99.90;;;;;;5024174;28;20038;-50
2022/01/26 12:44:12;;;;;;;80.25;32.92;;;3.90;99.90;;;;;;5023317;28;20432;-50
2022/01/26 12:46:40;;;;;;;85.63;33.78;;;3.90;99.90;;;;;;5023733;28;20051;-48
2022/01/26 12:49:22;;;;;;;87.13;33.50;;;3.90;99.90;;;;;;5023924;28;20091;-52
2022/01/26 12:51:51;;;;;;;84.72;34.35;;;3.90;99.90;;;;;;5023761;28;20038;-54
2022/01/26 12:54:20;;;;;;;80.97;33.55;;;3.90;99.90;;;;;;5023251;28;20033;-52
2022/01/26 12:56:45;;;;;;;82.38;33.88;;;4.00;99.90;;;;;;5023378;28;20091;-53
2022/01/26 12:59:15;;;;;;;85.78;35.75;;;3.90;99.90;;;;;;5023427;28;20420;-52
2022/01/26 13:01:42;;;;;;;89.10;35.38;;;3.90;99.90;;;;;;5024114;28;20124;-52
2022/01/26 13:04:11;;;;;;;85.53;35.53;;;3.90;99.90;;;;;;5022487;28;20043;-53
2022/01/26 13:06:45;;;;;;;82.82;33.97;;;3.90;99.90;;;;;;5007152;28;20041;-53
2022/01/26 13:09:18;;;;;;;83.07;34.55;;;4.00;99.90;;;;;;5023467;28;20075;-54
2022/01/26 13:11:48;;;;;;;85.03;35.53;;;4.00;99.90;;;;;;5021615;28;20037;-52
2022/01/26 13:14:28;;;;;;;83.40;36.25;;;3.90;99.90;;;;;;5025445;28;20052;-53
2022/01/26 13:19:48;;;;;;;89.45;35.33;;;4.00;99.90;;;;;;5028339;28;20045;-50
2022/01/26 13:48:59;;;;;;;85.03;33.72;;;4.10;99.90;;;;;;5034639;28;20428;-54
2022/01/26 13:51:38;;;;;;;89.68;35.40;;;4.10;99.90;;;;;;5033877;28;20037;-52
2022/01/26 13:59:23;;;;;;;79.03;35.97;;;4.10;99.90;;;;;;5034496;28;20570;-49
2022/01/26 14:01:50;;;;;;;82.85;34.10;;;4.10;99.90;;;;;;5016623;28;20128;-50
2022/01/26 14:04:17;;;;;;;80.78;32.25;;;4.20;99.90;;;;;;5034182;28;20504;-48
2022/01/26 14:06:43;;;;;;;79.45;34.10;;;4.20;99.90;;;;;;5016596;28;20037;-50
2022/01/26 14:09:09;;;;;;;88.85;34.58;;;4.20;99.90;;;;;;5034149;28;20033;-48
2022/01/26 14:11:35;;;;;;;80.45;34.00;;;4.20;99.90;;;;;;5034338;28;20048;-48
2022/01/26 14:14:02;;;;;;;83.45;33.65;;;4.30;99.90;;;;;;5033953;28;20444;-52
2022/01/26 14:16:32;;;;;;;81.28;31.95;;;4.30;99.90;;;;;;5034282;28;20038;-54
2022/01/26 14:26:29;;;;;;;83.15;33.17;;;4.40;99.90;;;;;;5025296;28;20492;-52
2022/01/26 14:28:55;;;;;;;85.50;35.20;;;4.40;99.90;;;;;;5026980;28;20046;-48
2022/01/26 14:34:19;;;;;;;79.25;32.50;;;4.40;99.90;;;;;;5014471;28;20056;-47
2022/01/26 15:51:15;;;;;;;73.80;31.55;;;4.50;99.90;;;;;;5012408;28;20046;-51
2022/01/26 16:04:16;;;;;;;73.95;30.80;;;4.50;99.90;;;;;;5012788;28;20603;-54
2022/01/26 16:05:27;;;;;;;72.70;31.13;;;4.50;99.90;;;;;;4993316;28;20088;-51
2022/01/26 16:08:06;;;;;;;78.68;32.85;;;4.60;99.90;;;;;;5011832;28;20116;-53
2022/01/26 16:21:23;;;;;;;70.45;30.73;;;4.60;99.90;;;;;;5012035;28;20361;-49
2022/01/26 18:04:01;;;;;;;65.35;28.30;;;4.80;99.90;;;;;;4998672;28;19971;-51
2022/01/26 18:15:29;;;;;;;64.90;26.02;;;4.90;99.90;;;;;;4972120;28;20045;-50
2022/01/26 18:26:30;;;;;;;65.43;26.73;;;5.00;99.90;;;;;;5027127;28;20481;-51
2022/01/26 18:32:09;;;;;;;61.20;28.98;;;5.00;99.90;;;;;;5021906;28;20080;-51
2022/01/26 18:50:53;;;;;;;71.18;31.08;;;4.80;99.90;;;;;;5020507;28;20041;-52
2022/01/26 18:53:19;;;;;;;71.07;33.50;;;4.80;99.90;;;;;;5029224;28;20033;-49
2022/01/26 18:55:44;;;;;;;70.05;32.78;;;4.90;99.90;;;;;;5025354;28;20056;-51
2022/01/26 18:58:10;;;;;;;75.50;32.70;;;4.80;99.90;;;;;;5033433;28;20037;-52
2022/01/26 19:00:37;;;;;;;70.97;33.25;;;4.80;99.90;;;;;;5026953;28;20048;-52
2022/01/26 19:03:04;;;;;;;66.32;32.58;;;4.80;99.90;;;;;;5014264;28;20417;-50
2022/01/26 19:05:30;;;;;;;70.63;33.25;;;4.80;99.90;;;;;;5023508;28;20397;-52
2022/01/26 19:07:57;;;;;;;76.95;34.83;;;4.80;99.90;;;;;;5023960;28;20052;-52
2022/01/26 19:10:24;;;;;;;77.57;33.22;;;4.80;99.90;;;;;;5014182;28;20041;-52
2022/01/26 19:12:50;;;;;;;75.95;35.25;;;4.80;99.90;;;;;;5018906;28;20109;-51
2022/01/26 19:15:20;;;;;;;70.88;34.05;;;4.80;99.90;;;;;;5016109;28;20052;-50
2022/01/26 19:18:27;;;;;;;79.18;37.10;;;4.80;99.90;;;;;;5014511;28;20050;-54
2022/01/26 19:26:14;;;;;;;77.03;35.95;;;4.80;99.90;;;;;;4994902;28;20133;-49
2022/01/26 19:28:44;;;;;;;73.75;35.05;;;4.80;99.90;;;;;;5004436;28;20034;-50
2022/01/26 19:47:16;;;;;;;83.03;38.78;;;4.70;99.90;;;;;;5012512;28;20167;-53
2022/01/26 19:52:27;;;;;;;80.70;37.05;;;4.70;99.90;;;;;;5012884;28;20184;-50
2022/01/26 19:54:54;;;;;;;77.95;36.67;;;4.70;99.90;;;;;;5002994;28;20050;-49
2022/01/26 19:57:20;;;;;;;80.30;36.70;;;4.70;99.90;;;;;;5012379;28;20034;-51